createdAt,value
2017-08-11T00:00:54.122Z,21.27
2017-08-11T00:03:20.898Z,21.48
2017-08-11T00:05:47.624Z,19.45
2017-08-11T00:08:14.371Z,19.23
2017-08-11T00:10:41.108Z,22.35
2017-08-11T00:13:07.770Z,22.77
2017-08-11T00:15:34.493Z,21.02
2017-08-11T00:18:01.149Z,20.20
2017-08-11T00:20:27.877Z,21.42
2017-08-11T00:22:54.712Z,21.83
2017-08-11T00:25:21.364Z,23.30
2017-08-11T00:27:48.032Z,19.77
2017-08-11T00:30:14.733Z,21.08
2017-08-11T00:32:41.477Z,21.00
2017-08-11T00:35:08.125Z,20.60
2017-08-11T00:37:34.875Z,20.92
2017-08-11T00:40:01.597Z,20.17
2017-08-11T00:42:28.335Z,21.98
2017-08-11T00:44:55.082Z,20.23
2017-08-11T00:47:21.750Z,20.05
2017-08-11T00:49:48.476Z,21.87
2017-08-11T00:52:15.152Z,20.10
2017-08-11T00:54:41.808Z,18.60
2017-08-11T00:57:08.482Z,18.08
2017-08-11T00:59:35.238Z,19.95
2017-08-11T01:02:01.964Z,19.98
2017-08-11T01:04:28.626Z,20.12
2017-08-11T01:06:55.366Z,21.25
2017-08-11T01:09:22.098Z,18.62
2017-08-11T01:11:48.766Z,20.70
2017-08-11T01:14:15.445Z,19.58
2017-08-11T01:16:42.110Z,18.92
2017-08-11T01:19:08.843Z,18.85
2017-08-11T01:21:35.527Z,23.00
2017-08-11T01:24:02.195Z,20.90
2017-08-11T01:26:28.852Z,17.50
2017-08-11T01:28:55.604Z,18.80
2017-08-11T01:31:22.257Z,20.58
2017-08-11T01:33:48.922Z,18.25
2017-08-11T01:36:15.643Z,18.48
2017-08-11T01:38:42.382Z,18.85
2017-08-11T01:41:09.127Z,20.48
2017-08-11T01:43:35.812Z,18.87
2017-08-11T01:46:02.483Z,19.98
2017-08-11T01:48:29.135Z,20.10
2017-08-11T01:50:55.868Z,20.55
2017-08-11T01:53:22.516Z,21.00
2017-08-11T01:55:49.267Z,21.33
2017-08-11T01:58:15.944Z,21.15
2017-08-11T02:00:42.642Z,19.60
2017-08-11T02:03:09.378Z,19.02
2017-08-11T02:05:36.063Z,18.40
2017-08-11T02:08:02.720Z,18.30
2017-08-11T02:10:29.369Z,20.50
2017-08-11T02:12:56.132Z,23.35
2017-08-11T02:15:22.780Z,24.85
2017-08-11T02:17:49.512Z,23.17
2017-08-11T02:20:16.176Z,19.15
2017-08-11T02:22:42.824Z,21.00
2017-08-11T02:25:09.537Z,20.23
2017-08-11T02:27:36.290Z,22.75
2017-08-11T02:30:02.955Z,21.52
2017-08-11T02:32:29.671Z,19.55
2017-08-11T02:34:56.706Z,20.40
2017-08-11T02:37:23.373Z,20.70
2017-08-11T02:39:50.101Z,19.83
2017-08-11T02:42:16.772Z,20.12
2017-08-11T02:44:43.470Z,19.77
2017-08-11T02:47:10.203Z,19.58
2017-08-11T02:49:36.876Z,20.05
2017-08-11T02:52:03.589Z,21.75
2017-08-11T02:54:30.247Z,20.92
2017-08-11T02:56:56.934Z,19.17
2017-08-11T02:59:23.599Z,18.65
2017-08-11T03:01:50.268Z,19.87
2017-08-11T03:04:16.946Z,19.00
2017-08-11T03:06:43.596Z,18.75
2017-08-11T03:09:10.260Z,19.42
2017-08-11T03:11:37.331Z,18.10
2017-08-11T03:14:04.051Z,17.95
2017-08-11T03:16:30.797Z,18.12
2017-08-11T03:18:57.463Z,20.62
2017-08-11T03:21:24.190Z,17.83
2017-08-11T03:23:50.847Z,18.15
2017-08-11T03:26:17.529Z,19.92
2017-08-11T03:28:44.172Z,15.90
2017-08-11T03:31:10.837Z,17.45
2017-08-11T03:33:37.590Z,17.83
2017-08-11T03:36:04.337Z,15.75
2017-08-11T03:38:30.983Z,16.55
2017-08-11T03:40:57.666Z,16.90
2017-08-11T03:43:24.352Z,18.02
2017-08-11T03:45:51.012Z,18.90
2017-08-11T03:48:18.340Z,19.77
2017-08-11T03:50:45.020Z,18.58
2017-08-11T03:53:12.028Z,19.73
2017-08-11T03:55:38.928Z,21.50
2017-08-11T03:58:05.610Z,19.85
2017-08-11T04:00:32.264Z,21.87
2017-08-11T04:02:59.441Z,19.45
2017-08-11T04:05:27.579Z,21.20
2017-08-11T04:07:54.449Z,24.08
2017-08-11T04:10:22.837Z,21.30
2017-08-11T04:12:52.126Z,22.90
2017-08-11T04:15:18.879Z,20.90
2017-08-11T04:17:45.792Z,21.30
2017-08-11T04:20:12.503Z,22.05
2017-08-11T04:22:39.274Z,25.15
2017-08-11T04:25:06.025Z,25.42
2017-08-11T04:27:33.893Z,24.10
2017-08-11T04:30:00.725Z,25.40
2017-08-11T04:32:27.461Z,27.95
2017-08-11T04:34:54.220Z,29.25
2017-08-11T04:37:20.940Z,26.15
2017-08-11T04:39:47.623Z,28.70
2017-08-11T04:42:14.273Z,33.90
2017-08-11T04:44:40.919Z,33.08
2017-08-11T04:47:07.619Z,30.42
2017-08-11T04:49:34.276Z,28.52
2017-08-11T04:52:00.943Z,30.08
2017-08-11T04:54:27.622Z,28.77
2017-08-11T04:56:54.504Z,25.10
2017-08-11T04:59:21.204Z,26.62
2017-08-11T05:01:47.948Z,28.42
2017-08-11T05:04:14.684Z,26.55
2017-08-11T05:06:41.351Z,27.73
2017-08-11T05:09:08.040Z,30.73
2017-08-11T05:11:34.688Z,27.45
2017-08-11T05:14:01.349Z,25.88
2017-08-11T05:16:28.040Z,26.60
2017-08-11T05:18:54.840Z,26.90
2017-08-11T05:21:21.573Z,30.75
2017-08-11T05:23:48.259Z,31.95
2017-08-11T05:26:14.948Z,27.75
2017-08-11T05:28:41.699Z,37.47
2017-08-11T05:31:08.391Z,28.85
2017-08-11T05:33:35.072Z,33.55
2017-08-11T05:36:01.735Z,34.70
2017-08-11T05:38:28.453Z,39.38
2017-08-11T05:40:55.211Z,34.08
2017-08-11T05:43:21.874Z,29.05
2017-08-11T05:45:48.568Z,31.17
2017-08-11T05:48:15.212Z,33.72
2017-08-11T05:50:41.874Z,36.63
2017-08-11T05:53:08.597Z,36.75
2017-08-11T05:55:35.351Z,39.00
2017-08-11T05:58:02.009Z,38.85
2017-08-11T06:00:28.691Z,42.60
2017-08-11T06:02:55.372Z,41.40
2017-08-11T06:05:22.028Z,39.83
2017-08-11T06:07:48.696Z,41.90
2017-08-11T06:10:15.348Z,41.53
2017-08-11T06:12:42.010Z,41.95
2017-08-11T06:15:08.775Z,41.70
2017-08-11T06:17:35.505Z,44.17
2017-08-11T06:20:02.241Z,40.05
2017-08-11T06:22:28.931Z,38.45
2017-08-11T06:24:55.602Z,39.38
2017-08-11T06:27:22.252Z,36.70
2017-08-11T06:29:48.924Z,32.13
2017-08-11T06:32:15.637Z,35.97
2017-08-11T06:34:42.285Z,31.92
2017-08-11T06:37:09.129Z,31.10
2017-08-11T06:39:35.860Z,28.08
2017-08-11T06:42:02.622Z,29.85
2017-08-11T06:44:29.348Z,26.12
2017-08-11T06:46:56.001Z,27.60
2017-08-11T06:49:22.743Z,26.25
2017-08-11T06:51:49.488Z,29.58
2017-08-11T06:54:16.158Z,24.00
2017-08-11T06:56:42.854Z,24.30
2017-08-11T06:59:09.591Z,22.90
2017-08-11T07:01:36.250Z,23.00
2017-08-11T07:04:02.973Z,22.83
2017-08-11T07:06:30.344Z,24.70
2017-08-11T07:08:57.087Z,20.67
2017-08-11T07:11:23.744Z,21.45
2017-08-11T07:13:50.431Z,19.23
2017-08-11T07:16:17.493Z,20.37
2017-08-11T07:18:44.236Z,19.17
2017-08-11T07:21:10.996Z,24.00
2017-08-11T07:23:37.666Z,25.17
2017-08-11T07:26:04.375Z,29.08
2017-08-11T07:28:31.123Z,22.27
2017-08-11T07:30:58.575Z,23.85
2017-08-11T07:33:25.233Z,20.98
2017-08-11T07:35:51.918Z,19.23
2017-08-11T07:38:18.572Z,18.02
2017-08-11T07:40:45.339Z,19.77
2017-08-11T07:43:12.079Z,21.37
2017-08-11T07:45:38.742Z,20.77
2017-08-11T07:48:05.392Z,27.52
2017-08-11T07:50:32.084Z,20.88
2017-08-11T07:52:58.737Z,20.40
2017-08-11T07:55:25.388Z,21.45
2017-08-11T07:57:52.100Z,21.15
2017-08-11T08:00:18.748Z,23.45
2017-08-11T08:02:45.489Z,18.08
2017-08-11T08:05:12.239Z,22.13
2017-08-11T08:07:38.893Z,20.37
2017-08-11T08:10:05.620Z,21.40
2017-08-11T08:12:32.358Z,17.77
2017-08-11T08:14:59.084Z,18.48
2017-08-11T08:17:25.834Z,14.57
2017-08-11T08:19:52.515Z,17.52
2017-08-11T08:22:19.169Z,16.05
2017-08-11T08:24:45.816Z,18.55
2017-08-11T08:27:12.492Z,18.40
2017-08-11T08:29:39.248Z,20.02
2017-08-11T08:32:05.910Z,18.87
2017-08-11T08:34:32.609Z,15.90
2017-08-11T08:36:59.360Z,14.18
2017-08-11T08:39:26.009Z,16.15
2017-08-11T08:41:52.742Z,17.92
2017-08-11T08:44:19.417Z,16.25
2017-08-11T08:46:46.128Z,16.48
2017-08-11T08:49:12.800Z,17.67
2017-08-11T08:51:39.493Z,15.35
2017-08-11T08:54:06.140Z,15.07
2017-08-11T08:56:32.816Z,13.90
2017-08-11T08:58:59.465Z,16.75
2017-08-11T09:01:26.148Z,28.55
2017-08-11T09:03:52.887Z,17.98
2017-08-11T09:06:19.537Z,17.87
2017-08-11T09:08:46.268Z,14.30
2017-08-11T09:11:13.021Z,15.55
2017-08-11T09:13:39.756Z,19.65
2017-08-11T09:16:06.496Z,14.10
2017-08-11T09:18:33.540Z,22.13
2017-08-11T09:21:00.191Z,18.45
2017-08-11T09:23:26.840Z,14.48
2017-08-11T09:25:59.413Z,12.40
2017-08-11T09:28:32.013Z,16.23
2017-08-11T09:31:04.948Z,18.80
2017-08-11T09:33:38.035Z,17.92
2017-08-11T09:36:10.686Z,14.93
2017-08-11T09:38:37.704Z,17.02
2017-08-11T09:41:04.438Z,15.43
2017-08-11T09:43:31.099Z,13.40
2017-08-11T09:45:57.813Z,17.60
2017-08-11T09:48:24.482Z,20.05
2017-08-11T09:50:51.189Z,17.23
2017-08-11T09:53:17.844Z,11.75
2017-08-11T09:55:44.500Z,17.50
2017-08-11T09:58:11.209Z,14.40
2017-08-11T10:00:37.949Z,24.67
2017-08-11T10:03:04.693Z,19.42
2017-08-11T10:05:31.432Z,16.25
2017-08-11T10:07:58.173Z,14.90
2017-08-11T10:10:24.820Z,24.45
2017-08-11T10:12:51.485Z,21.00
2017-08-11T10:15:18.155Z,17.00
2017-08-11T10:17:44.828Z,18.65
2017-08-11T10:20:11.574Z,18.20
2017-08-11T10:22:38.317Z,16.75
2017-08-11T10:25:05.075Z,16.23
2017-08-11T10:27:31.795Z,19.67
2017-08-11T10:29:58.536Z,16.80
2017-08-11T10:32:25.207Z,17.55
2017-08-11T10:34:51.880Z,20.33
2017-08-11T10:37:18.547Z,21.27
2017-08-11T10:39:45.202Z,24.73
2017-08-11T10:42:11.887Z,15.45
2017-08-11T10:44:38.595Z,18.00
2017-08-11T10:47:05.271Z,17.27
2017-08-11T10:49:31.940Z,16.23
2017-08-11T10:51:58.719Z,20.05
2017-08-11T10:54:25.387Z,19.00
2017-08-11T10:56:52.068Z,18.48
2017-08-11T10:59:18.840Z,21.77
2017-08-11T11:01:45.568Z,19.27
2017-08-11T11:04:12.248Z,16.27
2017-08-11T11:06:38.900Z,15.98
2017-08-11T11:09:05.605Z,19.02
2017-08-11T11:11:34.138Z,16.83
2017-08-11T11:14:00.892Z,15.30
2017-08-11T11:16:27.545Z,15.57
2017-08-11T11:18:54.294Z,16.50
2017-08-11T11:21:21.029Z,16.10
2017-08-11T11:23:47.733Z,13.62
2017-08-11T11:26:14.530Z,13.25
2017-08-11T11:28:41.176Z,12.80
2017-08-11T11:31:07.838Z,13.00
2017-08-11T11:33:34.546Z,12.30
2017-08-11T11:36:01.216Z,13.50
2017-08-11T11:38:27.930Z,14.75
2017-08-11T11:40:54.660Z,13.77
2017-08-11T11:43:21.402Z,13.38
2017-08-11T11:45:48.049Z,15.18
2017-08-11T11:48:14.711Z,20.35
2017-08-11T11:50:41.431Z,17.25
2017-08-11T11:53:08.103Z,18.58
2017-08-11T11:55:34.811Z,14.68
2017-08-11T11:58:01.545Z,12.82
2017-08-11T12:00:28.201Z,14.82
2017-08-11T12:02:54.902Z,12.60
2017-08-11T12:05:21.571Z,14.63
2017-08-11T12:07:48.244Z,13.60
2017-08-11T12:10:14.955Z,14.95
2017-08-11T12:12:41.695Z,13.05
2017-08-11T12:15:08.434Z,13.43
2017-08-11T12:17:35.172Z,10.68
2017-08-11T12:20:01.905Z,12.45
2017-08-11T12:22:28.539Z,9.38
2017-08-11T12:24:55.199Z,10.40
2017-08-11T12:27:21.859Z,10.55
2017-08-11T12:29:48.510Z,9.90
2017-08-11T12:32:15.505Z,20.42
2017-08-11T12:34:42.170Z,10.02
2017-08-11T12:37:08.820Z,11.20
2017-08-11T12:39:35.503Z,10.77
2017-08-11T12:42:02.164Z,9.75
2017-08-11T12:44:28.855Z,10.68
2017-08-11T12:46:55.520Z,10.43
2017-08-11T12:49:22.173Z,11.98
2017-08-11T12:51:48.926Z,14.10
2017-08-11T12:54:15.614Z,9.77
2017-08-11T12:56:42.315Z,9.50
2017-08-11T12:59:09.050Z,9.32
2017-08-11T13:01:35.788Z,16.98
2017-08-11T13:04:02.536Z,18.55
2017-08-11T13:06:29.274Z,9.70
2017-08-11T13:08:55.941Z,18.02
2017-08-11T13:11:22.603Z,9.68
2017-08-11T13:13:49.503Z,16.67
2017-08-11T13:16:16.210Z,17.40
2017-08-11T13:18:42.891Z,21.15
2017-08-11T13:21:09.830Z,18.02
2017-08-11T13:23:36.565Z,24.42
2017-08-11T13:26:03.304Z,26.67
2017-08-11T13:28:30.063Z,9.13
2017-08-11T13:30:56.802Z,15.52
2017-08-11T13:33:23.466Z,25.48
2017-08-11T13:35:50.381Z,22.33
2017-08-11T13:38:17.117Z,8.70
2017-08-11T13:40:43.870Z,17.17
2017-08-11T13:43:10.600Z,11.75
2017-08-11T13:45:37.264Z,11.38
2017-08-11T13:48:03.916Z,15.45
2017-08-11T13:50:30.570Z,8.32
2017-08-11T13:52:57.235Z,8.25
2017-08-11T13:55:23.896Z,9.20
2017-08-11T13:57:50.566Z,9.90
2017-08-11T14:00:17.228Z,9.10
2017-08-11T14:02:43.894Z,8.75
2017-08-11T14:05:11.364Z,8.70
2017-08-11T14:07:38.097Z,14.18
2017-08-11T14:10:04.752Z,12.55
2017-08-11T14:12:31.411Z,9.85
2017-08-11T14:14:58.132Z,9.05
2017-08-11T14:17:24.798Z,12.70
2017-08-11T14:19:51.622Z,16.98
2017-08-11T14:22:18.371Z,21.35
2017-08-11T14:24:46.830Z,28.70
2017-08-11T14:27:13.584Z,28.73
2017-08-11T14:29:40.248Z,17.05
2017-08-11T14:32:06.981Z,15.73
2017-08-11T14:34:33.719Z,23.33
2017-08-11T14:37:00.457Z,18.25
2017-08-11T14:39:27.184Z,19.42
2017-08-11T14:41:53.867Z,18.50
2017-08-11T14:44:20.589Z,17.62
2017-08-11T14:46:47.259Z,19.42
2017-08-11T14:49:13.927Z,26.42
2017-08-11T14:51:40.597Z,17.45
2017-08-11T14:54:07.268Z,21.85
2017-08-11T14:56:33.935Z,11.07
2017-08-11T14:59:00.704Z,17.50
2017-08-11T15:01:27.397Z,20.55
2017-08-11T15:03:54.087Z,13.18
2017-08-11T15:06:20.842Z,10.32
2017-08-11T15:08:47.582Z,11.50
2017-08-11T15:11:14.314Z,15.60
2017-08-11T15:13:41.073Z,8.50
2017-08-11T15:16:07.724Z,8.95
2017-08-11T15:18:34.387Z,9.00
2017-08-11T15:21:01.086Z,8.52
2017-08-11T15:23:27.732Z,9.07
2017-08-11T15:25:54.445Z,7.75
2017-08-11T15:28:21.200Z,11.07
2017-08-11T15:30:47.938Z,8.10
2017-08-11T15:33:14.684Z,7.22
2017-08-11T15:35:41.431Z,8.55
2017-08-11T15:38:08.075Z,6.70
2017-08-11T15:40:34.814Z,7.68
2017-08-11T15:43:01.473Z,7.68
2017-08-11T15:45:28.116Z,8.48
2017-08-11T15:47:54.760Z,7.47
2017-08-11T15:50:21.475Z,7.65
2017-08-11T15:52:48.206Z,7.28
2017-08-11T15:55:14.939Z,8.20
2017-08-11T15:57:41.611Z,8.00
2017-08-11T16:00:08.335Z,6.57
2017-08-11T16:02:35.083Z,7.55
2017-08-11T16:05:01.861Z,8.70
2017-08-11T16:07:28.567Z,7.80
2017-08-11T16:09:55.304Z,7.50
2017-08-11T16:12:21.991Z,7.87
2017-08-11T16:14:48.644Z,6.22
2017-08-11T16:17:15.292Z,6.97
2017-08-11T16:19:41.944Z,7.55
2017-08-11T16:22:08.590Z,9.60
2017-08-11T16:24:35.247Z,8.02
2017-08-11T16:27:01.931Z,8.73
2017-08-11T16:29:28.597Z,8.23
2017-08-11T16:31:55.240Z,7.72
2017-08-11T16:34:22.004Z,8.88
2017-08-11T16:36:48.673Z,10.07
2017-08-11T16:39:15.333Z,8.80
2017-08-11T16:41:42.123Z,7.25
2017-08-11T16:44:08.864Z,7.57
2017-08-11T16:46:35.588Z,9.20
2017-08-11T16:49:02.247Z,9.43
2017-08-11T16:51:29.080Z,8.43
2017-08-11T16:53:55.738Z,8.88
2017-08-11T16:56:22.414Z,9.45
2017-08-11T16:58:49.112Z,9.43
2017-08-11T17:01:15.770Z,8.40
2017-08-11T17:03:42.450Z,8.90
2017-08-11T17:06:09.112Z,6.68
2017-08-11T17:08:35.776Z,2.67
2017-08-11T17:11:02.493Z,4.90
2017-08-11T17:13:29.259Z,5.62
2017-08-11T17:15:55.908Z,4.72
2017-08-11T17:18:22.635Z,1.90
2017-08-11T17:20:49.375Z,3.00
2017-08-11T17:23:16.024Z,2.85
2017-08-11T17:25:42.736Z,2.92
2017-08-11T17:28:09.453Z,2.72
2017-08-11T17:30:36.107Z,3.35
2017-08-11T17:33:02.874Z,2.03
2017-08-11T17:35:29.535Z,3.80
2017-08-11T17:37:56.180Z,3.05
2017-08-11T17:40:22.844Z,1.90
2017-08-11T17:42:49.507Z,3.00
2017-08-11T17:45:16.151Z,4.43
2017-08-11T17:47:42.899Z,2.53
2017-08-11T17:50:09.655Z,2.70
2017-08-11T17:52:36.304Z,2.72
2017-08-11T17:55:03.034Z,4.70
2017-08-11T17:57:29.760Z,4.68
2017-08-11T17:59:56.506Z,2.15
2017-08-11T18:02:23.183Z,2.47
2017-08-11T18:04:49.847Z,2.90
2017-08-11T18:07:16.542Z,1.67
2017-08-11T18:09:43.218Z,1.90
2017-08-11T18:12:09.900Z,2.95
2017-08-11T18:14:36.548Z,2.55
2017-08-11T18:17:03.285Z,3.58
2017-08-11T18:19:29.927Z,1.60
2017-08-11T18:21:56.671Z,2.03
2017-08-11T18:24:23.336Z,2.37
2017-08-11T18:26:50.039Z,2.10
2017-08-11T18:29:16.707Z,1.50
2017-08-11T18:31:43.388Z,1.50
2017-08-11T18:34:10.065Z,1.48
2017-08-11T18:36:36.806Z,1.00
2017-08-11T18:39:03.553Z,1.00
2017-08-11T18:41:30.210Z,1.20
2017-08-11T18:43:56.929Z,1.33
2017-08-11T18:46:23.589Z,1.70
2017-08-11T18:48:50.233Z,1.25
2017-08-11T18:51:16.944Z,1.05
2017-08-11T18:53:43.685Z,2.20
2017-08-11T18:56:10.424Z,3.12
2017-08-11T18:58:37.085Z,0.95
2017-08-11T19:01:03.812Z,1.02
2017-08-11T19:03:30.479Z,1.10
2017-08-11T19:05:57.142Z,1.25
2017-08-11T19:08:23.819Z,1.10
2017-08-11T19:10:50.474Z,3.10
2017-08-11T19:13:17.208Z,1.40
2017-08-11T19:15:43.883Z,2.00
2017-08-11T19:18:10.543Z,0.82
2017-08-11T19:20:37.228Z,1.40
2017-08-11T19:23:03.903Z,1.05
2017-08-11T19:25:30.571Z,0.93
2017-08-11T19:27:57.215Z,1.05
2017-08-11T19:30:23.974Z,1.62
2017-08-11T19:32:50.747Z,3.75
2017-08-11T19:35:17.491Z,0.80
2017-08-11T19:37:44.153Z,0.80
2017-08-11T19:40:11.644Z,0.95
2017-08-11T19:42:38.305Z,1.58
2017-08-11T19:45:04.982Z,1.05
2017-08-11T19:47:31.660Z,1.30
2017-08-11T19:49:58.315Z,1.58
2017-08-11T19:52:24.977Z,1.48
2017-08-11T19:54:51.730Z,0.80
2017-08-11T19:57:18.452Z,1.10
2017-08-11T19:59:45.130Z,0.70
2017-08-11T20:02:11.851Z,1.73
2017-08-11T20:04:38.498Z,1.05
2017-08-11T20:07:05.179Z,1.17
2017-08-11T20:09:31.839Z,1.33
2017-08-11T20:11:58.484Z,1.02
2017-08-11T20:14:25.228Z,1.10
2017-08-11T20:16:51.977Z,3.42
2017-08-11T20:19:18.615Z,0.88
2017-08-11T20:21:45.296Z,2.55
2017-08-11T20:24:11.948Z,0.77
2017-08-11T20:26:38.675Z,0.85
2017-08-11T20:29:05.372Z,1.12
2017-08-11T20:31:32.031Z,1.08
2017-08-11T20:33:58.671Z,1.50
2017-08-11T20:36:25.397Z,0.70
2017-08-11T20:38:52.185Z,1.77
2017-08-11T20:41:18.894Z,0.80
2017-08-11T20:43:45.560Z,1.20
2017-08-11T20:46:12.196Z,1.37
2017-08-11T20:48:38.843Z,1.00
2017-08-11T20:51:05.531Z,1.90
2017-08-11T20:53:32.191Z,1.90
2017-08-11T20:55:58.851Z,1.00
2017-08-11T20:58:25.572Z,1.25
2017-08-11T21:00:52.220Z,1.10
2017-08-11T21:03:18.863Z,1.10
2017-08-11T21:05:45.590Z,1.30
2017-08-11T21:08:12.339Z,1.48
2017-08-11T21:10:39.052Z,1.00
2017-08-11T21:13:05.810Z,1.60
2017-08-11T21:15:32.457Z,1.83
2017-08-11T21:17:59.182Z,1.95
2017-08-11T21:20:25.868Z,4.28
2017-08-11T21:22:52.578Z,2.65
2017-08-11T21:25:19.238Z,2.10
2017-08-11T21:27:45.965Z,1.75
2017-08-11T21:30:12.680Z,1.92
2017-08-11T21:32:39.331Z,1.50
2017-08-11T21:35:06.065Z,1.60
2017-08-11T21:37:32.822Z,1.52
2017-08-11T21:39:59.562Z,1.58
2017-08-11T21:42:26.238Z,1.40
2017-08-11T21:44:52.894Z,1.23
2017-08-11T21:47:19.554Z,1.65
2017-08-11T21:49:46.211Z,1.60
2017-08-11T21:52:12.943Z,1.60
2017-08-11T21:54:39.602Z,1.73
2017-08-11T21:57:06.323Z,1.05
2017-08-11T21:59:33.078Z,1.00
2017-08-11T22:01:59.719Z,1.02
2017-08-11T22:04:26.463Z,1.40
2017-08-11T22:06:53.203Z,5.82
2017-08-11T22:09:19.946Z,0.98
2017-08-11T22:11:46.623Z,1.17
2017-08-11T22:14:13.309Z,1.35
2017-08-11T22:16:39.962Z,1.55
2017-08-11T22:19:06.643Z,1.17
2017-08-11T22:21:33.297Z,1.45
2017-08-11T22:23:59.939Z,1.92
2017-08-11T22:26:26.675Z,1.90
2017-08-11T22:28:53.370Z,1.58
2017-08-11T22:31:20.144Z,1.65
2017-08-11T22:33:46.804Z,1.60
2017-08-11T22:36:13.458Z,2.10
2017-08-11T22:38:40.212Z,1.60
2017-08-11T22:41:06.895Z,2.95
2017-08-11T22:43:33.539Z,1.87
2017-08-11T22:46:00.250Z,2.33
2017-08-11T22:48:26.978Z,2.10
2017-08-11T22:50:53.621Z,2.95
2017-08-11T22:53:20.348Z,2.78
2017-08-11T22:55:47.096Z,3.95
2017-08-11T22:58:13.746Z,4.37
2017-08-11T23:00:40.388Z,4.15
2017-08-11T23:03:07.049Z,3.35
2017-08-11T23:05:33.702Z,5.07
2017-08-11T23:08:00.366Z,4.65
2017-08-11T23:10:27.032Z,4.40
2017-08-11T23:12:53.791Z,6.22
2017-08-11T23:15:20.511Z,5.55
2017-08-11T23:17:47.275Z,6.35
2017-08-11T23:20:13.924Z,5.53
2017-08-11T23:22:40.658Z,6.03
2017-08-11T23:25:07.341Z,5.93
2017-08-11T23:27:34.016Z,8.63
2017-08-11T23:30:00.676Z,6.30
2017-08-11T23:32:27.348Z,10.20
2017-08-11T23:34:54.056Z,5.72
2017-08-11T23:37:20.719Z,5.90
2017-08-11T23:39:47.385Z,7.43
2017-08-11T23:42:14.028Z,5.70
2017-08-11T23:44:40.687Z,6.18
2017-08-11T23:47:07.364Z,5.60
2017-08-11T23:49:34.095Z,6.60
2017-08-11T23:52:00.816Z,6.78
2017-08-11T23:54:27.468Z,6.47
2017-08-11T23:56:54.131Z,7.43
2017-08-11T23:59:20.855Z,7.25
